Time;durP1;ratioP1;P1;durP2;ratioP2;P2;SDS_P1;SDS_P2;PMS_P1;PMS_P2;Temp;Humidity;BMP_temperature;BMP_pressure;BME280_temperature;BME280_humidity;BME280_pressure;Samples;Min_cycle;Max_cycle;Signal;HPM_P1;HPM_P2
2022/04/09 00:01:49;;;;;;;;;7.00;6.00;;;;;8.34;67.00;100749.31;4993047;28;52513;-80
2022/04/09 00:04:14;;;;;;;;;6.33;5.67;;;;;8.57;66.95;100778.66;4994133;28;45305;-80
2022/04/09 00:06:39;;;;;;;;;5.00;5.00;;;;;8.56;66.91;100776.88;4994148;28;50378;-81
2022/04/09 00:09:05;;;;;;;;;5.00;5.00;;;;;8.57;67.20;100783.97;4994823;28;45510;-81
2022/04/09 00:11:30;;;;;;;;;5.00;4.00;;;;;8.59;66.97;100794.50;4994433;28;46849;-81
2022/04/09 00:13:55;;;;;;;;;4.00;4.00;;;;;8.33;66.84;100750.22;4995136;28;45332;-80
2022/04/09 00:16:21;;;;;;;;;5.67;4.67;;;;;8.52;67.08;100783.25;4993737;28;55679;-81
2022/04/09 00:18:46;;;;;;;;;5.00;5.00;;;;;8.14;66.83;100744.69;4994464;28;45677;-81
2022/04/09 00:21:11;;;;;;;;;4.00;4.00;;;;;8.27;67.18;100743.34;4994925;28;45813;-81
2022/04/09 00:23:37;;;;;;;;;6.33;5.00;;;;;8.61;67.03;100795.31;4994665;28;45641;-81
2022/04/09 00:26:02;;;;;;;;;3.33;3.33;;;;;8.55;66.81;100782.28;4994221;28;45486;-81
2022/04/09 00:28:28;;;;;;;;;4.33;4.33;;;;;8.62;66.43;100799.75;4993517;27;45813;-81
2022/04/09 00:30:53;;;;;;;;;4.00;4.00;;;;;8.50;66.86;100786.84;4994148;28;46363;-81
2022/04/09 00:33:18;;;;;;;;;4.33;4.33;;;;;8.50;67.10;100778.88;4994406;28;45408;-81
2022/04/09 00:35:44;;;;;;;;;5.00;5.00;;;;;8.68;67.57;100806.63;4994315;27;46124;-81
2022/04/09 00:38:09;;;;;;;;;3.00;3.00;;;;;8.69;66.82;100809.22;4994092;28;45388;-80
2022/04/09 00:40:35;;;;;;;;;5.00;4.00;;;;;8.71;67.17;100817.13;4994052;28;45353;-81
2022/04/09 00:43:00;;;;;;;;;1.67;1.67;;;;;8.74;66.94;100825.00;4993904;28;45489;-80
2022/04/09 00:45:25;;;;;;;;;3.33;3.33;;;;;8.55;67.20;100790.25;4993478;28;45442;-81
2022/04/09 00:47:54;;;;;;;;;4.00;4.00;;;;;8.47;67.05;100773.69;4992635;28;45405;-81
2022/04/09 00:50:35;;;;;;;;;3.33;3.33;;;;;8.81;66.98;100824.72;4992953;28;46514;-81
2022/04/09 00:53:01;;;;;;;;;3.67;3.67;;;;;8.84;66.75;100824.63;4992170;28;45552;-81
2022/04/09 00:58:15;;;;;;;;;3.00;3.00;;;;;8.70;66.75;100804.78;4993833;28;45359;-81
2022/04/09 01:00:41;;;;;;;;;6.33;3.67;;;;;8.92;66.94;100832.34;4993695;27;45249;-81
2022/04/09 01:03:11;;;;;;;;;7.00;5.00;;;;;8.59;67.09;100776.81;4994053;28;45404;-81
2022/04/09 01:05:38;;;;;;;;;7.67;5.67;;;;;8.97;67.10;100843.69;4992503;28;45994;-81
2022/04/09 01:08:05;;;;;;;;;4.00;4.00;;;;;8.98;67.25;100844.53;4993945;28;45320;-81
2022/04/09 01:10:30;;;;;;;;;2.33;2.33;;;;;8.96;66.84;100857.00;4993960;28;45286;-81
2022/04/09 01:12:56;;;;;;;;;2.00;2.00;;;;;8.94;66.98;100845.56;4993279;28;45235;-81
2022/04/09 01:15:21;;;;;;;;;3.33;1.67;;;;;8.96;67.12;100847.25;4993322;27;45434;-81
2022/04/09 01:17:47;;;;;;;;;3.00;3.00;;;;;8.83;66.40;100830.00;4992883;28;45399;-81
2022/04/09 01:20:16;;;;;;;;;3.67;3.33;;;;;8.85;66.16;100841.47;4993375;28;45511;-81
2022/04/09 01:22:42;;;;;;;;;3.00;3.00;;;;;8.88;66.29;100851.97;4993551;28;45390;-81
2022/04/09 01:25:07;;;;;;;;;3.00;2.00;;;;;8.65;66.42;100821.75;4993085;28;46293;-81
2022/04/09 01:27:33;;;;;;;;;2.00;2.00;;;;;8.77;66.41;100856.78;5000497;28;45357;-81
2022/04/09 01:29:59;;;;;;;;;1.00;1.00;;;;;8.65;66.82;100852.75;5000482;28;45404;-81
2022/04/09 01:32:24;;;;;;;;;3.00;3.00;;;;;8.66;66.32;100879.28;4991494;28;45496;-81
2022/04/09 01:34:49;;;;;;;;;1.00;1.00;;;;;8.64;66.97;100886.44;4991508;28;52196;-81
2022/04/09 01:37:15;;;;;;;;;2.00;2.00;;;;;8.62;66.78;100896.25;4992869;27;45439;-81
2022/04/09 01:39:40;;;;;;;;;1.33;1.33;;;;;8.44;66.81;100872.94;4993072;27;45347;-81
2022/04/09 01:42:10;;;;;;;;;3.33;2.00;;;;;8.41;66.76;100873.06;4991929;27;45510;-81
2022/04/09 01:44:35;;;;;;;;;3.67;1.67;;;;;8.62;66.76;100898.03;4993422;28;45401;-81
2022/04/09 01:47:01;;;;;;;;;1.00;1.00;;;;;8.63;66.91;100900.63;4993192;28;45502;-81
2022/04/09 01:49:26;;;;;;;;;3.00;3.00;;;;;8.66;66.55;100905.88;4992846;28;45371;-81
2022/04/09 01:51:51;;;;;;;;;1.33;1.33;;;;;8.63;66.96;100905.94;4993243;28;45314;-81
2022/04/09 01:54:17;;;;;;;;;3.00;3.00;;;;;8.30;67.57;100862.72;4992664;28;45403;-81
2022/04/09 01:56:42;;;;;;;;;4.00;4.00;;;;;8.51;67.72;100897.53;4996260;28;45251;-81
2022/04/09 01:59:07;;;;;;;;;3.67;3.67;;;;;8.63;68.05;100915.72;4995942;28;45402;-80
2022/04/09 02:01:33;;;;;;;;;3.00;3.00;;;;;8.64;67.48;100909.50;4996171;27;45305;-82
2022/04/09 02:03:59;;;;;;;;;2.00;2.00;;;;;8.67;68.54;100912.03;4995083;27;46050;-81
2022/04/09 02:06:25;;;;;;;;;4.00;3.00;;;;;8.43;67.96;100863.25;4995421;28;45387;-81
2022/04/09 02:08:51;;;;;;;;;3.67;3.67;;;;;8.73;68.63;100902.97;4996076;28;45275;-81
2022/04/09 02:11:16;;;;;;;;;2.67;2.67;;;;;8.73;67.96;100913.59;4995542;28;45461;-81
2022/04/09 02:13:42;;;;;;;;;3.00;3.00;;;;;8.75;68.23;100912.63;4995794;27;46115;-81
2022/04/09 02:16:07;;;;;;;;;3.00;3.00;;;;;8.76;68.05;100903.75;4994701;28;45536;-81
2022/04/09 02:18:32;;;;;;;;;4.00;4.00;;;;;8.78;67.68;100890.41;4995136;28;45633;-81
2022/04/09 02:20:58;;;;;;;;;5.00;3.00;;;;;8.66;67.69;100875.75;4995479;28;45451;-81
2022/04/09 02:23:23;;;;;;;;;5.33;3.67;;;;;8.78;68.32;100896.59;4995601;28;45422;-81
2022/04/09 02:25:48;;;;;;;;;3.67;3.67;;;;;8.63;67.17;100886.47;4994976;28;45452;-81
2022/04/09 02:28:14;;;;;;;;;3.00;3.00;;;;;8.73;67.54;100905.63;5004511;28;45442;-81
2022/04/09 02:30:39;;;;;;;;;4.00;4.00;;;;;8.71;67.97;100916.34;4996330;27;45396;-81
2022/04/09 02:33:05;;;;;;;;;7.00;5.33;;;;;8.71;67.60;100912.78;4994930;27;46169;-81
2022/04/09 02:35:30;;;;;;;;;6.67;5.67;;;;;8.72;67.48;100919.84;4996067;28;45398;-81
2022/04/09 02:37:57;;;;;;;;;6.33;6.33;;;;;8.76;67.49;100921.50;4994570;28;45419;-81
2022/04/09 02:40:22;;;;;;;;;6.00;5.00;;;;;8.70;66.97;100916.38;4995306;28;45480;-81
2022/04/09 02:42:47;;;;;;;;;5.00;5.00;;;;;8.71;67.09;100921.66;4994569;27;46211;-81
2022/04/09 02:45:13;;;;;;;;;9.00;6.33;;;;;8.76;67.14;100946.28;4993902;28;45380;-80
2022/04/09 02:47:40;;;;;;;;;3.67;3.00;;;;;8.76;67.39;100945.41;4994113;28;45541;-81
2022/04/09 02:50:08;;;;;;;;;3.00;3.00;;;;;8.47;66.72;100899.38;4994929;28;45484;-81
2022/04/09 02:52:39;;;;;;;;;7.33;5.00;;;;;8.56;67.46;100912.38;4994218;28;45428;-81
2022/04/09 02:55:05;;;;;;;;;4.33;4.33;;;;;8.65;67.55;100927.16;4993222;27;46395;-81
2022/04/09 02:57:31;;;;;;;;;5.33;5.33;;;;;8.55;67.41;100918.63;4994393;27;45449;-81
2022/04/09 02:59:56;;;;;;;;;4.00;4.00;;;;;8.39;67.24;100899.63;5030165;27;45517;-81
2022/04/09 03:02:22;;;;;;;;;5.67;4.00;;;;;8.68;67.52;100950.09;4993899;27;46193;-81
2022/04/09 03:04:47;;;;;;;;;5.00;5.00;;;;;8.64;67.93;100967.94;4994650;27;45436;-81
2022/04/09 03:07:13;;;;;;;;;6.67;5.00;;;;;8.62;68.36;100967.97;4993050;28;47211;-81
2022/04/09 03:09:38;;;;;;;;;6.00;4.33;;;;;8.37;68.30;100937.75;4995482;28;45326;-81
2022/04/09 03:12:04;;;;;;;;;3.67;3.00;;;;;8.56;69.03;100970.81;4994752;27;49848;-81
2022/04/09 03:14:30;;;;;;;;;5.67;4.33;;;;;8.36;68.67;100936.91;4995107;28;45768;-81
2022/04/09 03:16:55;;;;;;;;;5.00;5.00;;;;;8.49;70.52;100966.63;4994077;27;45350;-80
2022/04/09 03:19:20;;;;;;;;;5.00;5.00;;;;;8.51;70.73;100972.75;4993678;27;46103;-81
2022/04/09 03:21:46;;;;;;;;;5.33;5.00;;;;;8.50;70.29;100973.69;4993110;27;46161;-81
2022/04/09 03:24:11;;;;;;;;;6.33;4.00;;;;;8.26;70.39;100940.75;4994286;28;45441;-80
2022/04/09 03:26:36;;;;;;;;;5.67;5.67;;;;;8.30;69.81;100952.16;4993955;27;45476;-81
2022/04/09 03:29:03;;;;;;;;;5.67;5.00;;;;;8.45;70.30;100981.81;4995878;28;45283;-81
2022/04/09 03:31:29;;;;;;;;;5.00;5.00;;;;;8.36;70.15;100968.78;4994275;27;46069;-81
2022/04/09 03:33:54;;;;;;;;;4.67;3.67;;;;;8.49;70.54;100981.69;4994944;28;45488;-81
2022/04/09 03:36:19;;;;;;;;;3.00;3.00;;;;;8.42;69.71;100984.53;4995011;27;45238;-81
2022/04/09 03:38:45;;;;;;;;;4.33;4.33;;;;;8.53;69.96;101000.16;4994026;28;45492;-81
2022/04/09 03:41:10;;;;;;;;;5.67;5.67;;;;;8.55;70.03;101000.13;4993144;28;46610;-81
2022/04/09 03:43:35;;;;;;;;;6.00;6.00;;;;;8.40;69.88;100974.88;4993843;28;45550;-81
2022/04/09 03:46:01;;;;;;;;;5.67;5.67;;;;;8.60;70.03;101003.50;4994206;28;45369;-81
2022/04/09 03:48:27;;;;;;;;;6.33;6.33;;;;;8.61;70.24;101003.41;4994585;28;45464;-81
2022/04/09 03:50:52;;;;;;;;;5.00;5.00;;;;;8.63;70.01;101006.91;4994750;28;46083;-81
2022/04/09 03:53:20;;;;;;;;;5.00;5.00;;;;;8.62;69.38;101007.84;4994179;27;45442;-81
2022/04/09 03:55:48;;;;;;;;;8.00;8.00;;;;;8.68;70.27;101016.53;4994844;28;46490;-81
2022/04/09 03:58:16;;;;;;;;;8.00;7.67;;;;;8.42;69.68;100976.56;4994267;27;45587;-81
2022/04/09 04:00:42;;;;;;;;;6.00;6.00;;;;;8.58;69.62;101000.00;4994472;28;45437;-81
2022/04/09 04:03:09;;;;;;;;;6.00;6.00;;;;;8.49;69.42;100982.56;4994593;27;45468;-81
2022/04/09 04:05:36;;;;;;;;;6.00;6.00;;;;;8.58;69.22;101006.19;4994922;27;45399;-81
2022/04/09 04:08:05;;;;;;;;;5.67;5.67;;;;;8.68;69.03;101017.38;4994774;28;45477;-81
2022/04/09 04:10:32;;;;;;;;;7.67;5.33;;;;;8.55;69.01;100992.16;4994715;27;45427;-81
2022/04/09 04:12:57;;;;;;;;;6.00;6.00;;;;;8.68;69.05;101005.91;4994575;27;45541;-81
2022/04/09 04:15:23;;;;;;;;;5.00;5.00;;;;;8.47;68.61;100978.22;4994923;27;45608;-81
2022/04/09 04:17:49;;;;;;;;;6.00;6.00;;;;;8.63;68.25;101006.91;4994380;27;45510;-80
2022/04/09 04:20:15;;;;;;;;;7.00;5.00;;;;;8.65;68.04;101007.72;4994867;28;46152;-81
2022/04/09 04:22:40;;;;;;;;;7.00;7.00;;;;;8.54;68.15;100979.75;4993414;27;45627;-81
2022/04/09 04:25:06;;;;;;;;;6.00;6.00;;;;;8.29;67.82;100945.09;4992171;27;45478;-81
2022/04/09 04:27:40;;;;;;;;;6.67;6.00;;;;;8.63;67.79;101009.56;4992349;27;45513;-81
2022/04/09 04:30:06;;;;;;;;;6.00;6.00;;;;;8.53;68.15;100993.97;4990678;28;45505;-81
2022/04/09 04:32:31;;;;;;;;;7.00;6.00;;;;;8.33;68.49;100952.06;4993351;28;45238;-81
2022/04/09 04:34:56;;;;;;;;;10.00;8.00;;;;;8.64;68.62;101013.97;4994385;27;45300;-81
2022/04/09 04:37:22;;;;;;;;;8.00;7.00;;;;;8.64;68.03;101019.28;4993741;28;45393;-81
2022/04/09 04:39:47;;;;;;;;;7.00;7.00;;;;;8.47;68.12;100983.53;4994003;28;45496;-81
2022/04/09 04:42:12;;;;;;;;;7.67;7.67;;;;;8.64;67.53;101013.13;4992878;28;45535;-81
2022/04/09 04:44:38;;;;;;;;;10.33;8.33;;;;;8.63;67.28;101014.88;4993025;27;46210;-81
2022/04/09 04:47:04;;;;;;;;;8.00;8.00;;;;;8.45;66.78;100992.44;4994097;28;45283;-81
2022/04/09 04:49:32;;;;;;;;;5.67;5.67;;;;;8.60;66.47;101028.25;4993058;28;46364;-81
2022/04/09 04:51:57;;;;;;;;;7.00;7.00;;;;;8.62;67.39;101033.53;4993764;28;45516;-81
2022/04/09 04:54:23;;;;;;;;;8.00;8.00;;;;;8.57;67.71;101019.50;4993458;27;45308;-80
2022/04/09 04:56:48;;;;;;;;;9.67;7.33;;;;;8.51;67.32;101014.41;4992007;27;45467;-80
2022/04/09 04:59:15;;;;;;;;;11.33;10.00;;;;;8.59;67.64;101039.81;4993196;27;45893;-81
2022/04/09 05:01:40;;;;;;;;;6.33;6.33;;;;;8.63;66.99;101044.09;4993605;28;45496;-81
2022/04/09 05:04:06;;;;;;;;;9.00;9.00;;;;;8.38;67.41;101000.56;4993720;28;45310;-81
2022/04/09 05:06:32;;;;;;;;;9.33;7.33;;;;;8.30;67.71;100984.88;4993463;28;45514;-81
2022/04/09 05:08:57;;;;;;;;;10.00;9.67;;;;;8.68;67.70;101043.09;4993172;28;45471;-81
2022/04/09 05:11:23;;;;;;;;;9.00;8.33;;;;;8.69;67.31;101047.50;4992944;28;45261;-81
2022/04/09 05:13:48;;;;;;;;;7.33;6.67;;;;;8.45;67.99;100996.84;5004928;27;45718;-81
2022/04/09 05:16:14;;;;;;;;;6.33;6.33;;;;;8.70;67.15;101034.16;4992661;27;45690;-81
2022/04/09 05:18:39;;;;;;;;;7.67;7.00;;;;;8.62;67.47;101013.16;4993349;28;46352;-81
2022/04/09 05:21:05;;;;;;;;;11.00;11.00;;;;;8.51;67.24;100996.66;4992853;28;45937;-81
2022/04/09 05:23:30;;;;;;;;;10.00;9.33;;;;;8.57;67.24;101011.53;4993091;28;45652;-80
2022/04/09 05:25:56;;;;;;;;;10.67;10.00;;;;;8.59;67.63;101009.69;4992478;28;45551;-81
2022/04/09 05:28:21;;;;;;;;;11.00;8.00;;;;;8.81;67.87;101050.63;4992822;27;45907;-80
2022/04/09 05:30:47;;;;;;;;;10.00;10.00;;;;;8.85;67.98;101062.94;4995302;28;45647;-81
2022/04/09 05:33:12;;;;;;;;;6.67;6.67;;;;;8.62;67.69;101022.91;4996179;28;45656;-81
2022/04/09 05:35:38;;;;;;;;;9.00;9.00;;;;;8.78;67.83;101045.44;4996170;28;45684;-80
2022/04/09 05:38:03;;;;;;;;;8.33;8.00;;;;;8.79;67.72;101044.50;4995603;27;46050;-81
2022/04/09 05:40:29;;;;;;;;;7.67;7.33;;;;;8.66;67.67;101027.19;4995254;28;45424;-80
2022/04/09 05:42:54;;;;;;;;;9.33;7.67;;;;;8.66;66.90;101024.53;4995564;28;45844;-81
2022/04/09 05:45:20;;;;;;;;;6.33;5.00;;;;;8.95;66.66;101066.16;4996472;28;45377;-80
2022/04/09 05:47:46;;;;;;;;;7.00;7.00;;;;;8.64;67.11;101027.25;4996141;27;45717;-81
2022/04/09 05:50:13;;;;;;;;;7.33;5.33;;;;;9.00;66.85;101079.31;4996293;27;45959;-81
2022/04/09 05:52:41;;;;;;;;;5.67;4.33;;;;;8.93;66.54;101054.69;4994954;27;45573;-81
2022/04/09 05:55:07;;;;;;;;;7.00;5.00;;;;;8.99;67.20;101067.81;4996583;28;45859;-81
2022/04/09 05:57:33;;;;;;;;;7.00;6.67;;;;;8.88;65.89;101044.22;4995640;28;46288;-80
2022/04/09 05:59:59;;;;;;;;;5.67;5.67;;;;;9.06;65.16;101073.78;4994944;27;45372;-81
2022/04/09 06:02:25;;;;;;;;;7.67;7.67;;;;;8.96;65.30;101054.59;4995512;28;45543;-80
2022/04/09 06:04:50;;;;;;;;;6.00;6.00;;;;;9.09;65.78;101071.91;4994647;27;45571;-80
2022/04/09 06:07:15;;;;;;;;;6.00;6.00;;;;;9.11;66.18;101079.84;4994192;28;52844;-81
2022/04/09 06:09:41;;;;;;;;;6.33;6.33;;;;;9.13;66.94;101088.63;4993848;27;45546;-81
2022/04/09 06:12:08;;;;;;;;;5.00;5.00;;;;;8.89;66.75;101042.41;4993967;27;45635;-81
2022/04/09 06:14:34;;;;;;;;;5.67;5.67;;;;;9.18;66.58;101096.47;4995754;27;45369;-82
2022/04/09 06:16:59;;;;;;;;;6.67;6.67;;;;;9.18;65.97;101097.34;4995481;27;45503;-81
2022/04/09 06:19:24;;;;;;;;;5.67;5.67;;;;;9.23;66.26;101099.84;4994922;28;45443;-84
2022/04/09 06:21:50;;;;;;;;;8.00;6.67;;;;;9.23;65.75;101105.16;4994794;28;45692;-81
2022/04/09 06:24:15;;;;;;;;;6.33;6.33;;;;;9.26;66.98;101105.91;4993754;27;45520;-80
2022/04/09 06:26:40;;;;;;;;;5.00;5.00;;;;;9.29;67.19;101107.59;4994297;28;47864;-81
2022/04/09 06:29:06;;;;;;;;;12.67;8.33;;;;;9.20;66.33;101089.28;4995472;28;45529;-81
2022/04/09 06:31:31;;;;;;;;;10.00;10.00;;;;;9.35;66.57;101118.06;4996281;28;45263;-81
2022/04/09 06:33:56;;;;;;;;;12.00;10.00;;;;;9.30;65.95;101117.34;4996389;28;45525;-80
2022/04/09 06:36:22;;;;;;;;;12.00;12.00;;;;;9.38;67.13;101130.38;4995331;28;45617;-80
2022/04/09 06:38:47;;;;;;;;;9.00;8.00;;;;;9.27;65.36;101115.66;4995979;28;45457;-80
2022/04/09 06:41:14;;;;;;;;;7.00;7.00;;;;;9.35;66.27;101131.34;4994639;28;45377;-80
2022/04/09 06:43:39;;;;;;;;;9.33;9.33;;;;;9.36;66.49;101125.09;4995245;28;45326;-80
2022/04/09 06:46:04;;;;;;;;;10.00;10.00;;;;;9.48;66.91;101139.78;4993586;27;45507;-81
2022/04/09 06:48:30;;;;;;;;;6.33;6.33;;;;;9.37;66.53;101118.88;4996141;27;45415;-80
2022/04/09 06:50:55;;;;;;;;;10.33;10.33;;;;;9.34;66.77;101111.00;4995885;27;45491;-81
2022/04/09 06:53:20;;;;;;;;;14.33;11.67;;;;;9.39;67.20;101116.16;4995540;27;45521;-80
2022/04/09 06:55:46;;;;;;;;;7.67;7.67;;;;;9.30;66.75;101104.91;4994374;27;48454;-81
2022/04/09 06:58:11;;;;;;;;;12.33;9.67;;;;;9.16;66.47;101080.56;4993926;28;46020;-80
2022/04/09 07:00:37;;;;;;;;;11.00;11.00;;;;;9.62;66.83;101155.31;4994917;27;45488;-81
2022/04/09 07:03:03;;;;;;;;;7.33;7.33;;;;;9.64;66.23;101154.31;4994190;28;45196;-80
2022/04/09 07:05:28;;;;;;;;;10.00;9.00;;;;;9.67;66.48;101154.25;5009322;27;47452;-80
2022/04/09 07:07:54;;;;;;;;;8.00;7.00;;;;;9.58;65.98;101143.91;4994151;28;45357;-80
2022/04/09 07:10:19;;;;;;;;;9.33;7.00;;;;;9.65;65.76;101147.25;4993796;27;45724;-80
2022/04/09 07:12:45;;;;;;;;;12.67;11.00;;;;;9.75;66.34;101169.94;4995280;27;45313;-80
2022/04/09 07:15:11;;;;;;;;;12.00;11.00;;;;;9.78;66.22;101175.16;4994545;27;46430;-80
2022/04/09 07:17:38;;;;;;;;;7.33;7.33;;;;;9.79;65.61;101176.94;4994915;28;45483;-80
2022/04/09 07:20:08;;;;;;;;;8.67;8.67;;;;;9.76;66.08;101162.84;4994611;27;45363;-80
2022/04/09 07:22:35;;;;;;;;;11.67;10.00;;;;;9.83;66.06;101173.25;4997081;28;45462;-81
2022/04/09 07:25:00;;;;;;;;;6.00;6.00;;;;;9.86;65.03;101181.13;4989186;28;46191;-80
2022/04/09 07:27:37;;;;;;;;;9.00;9.00;;;;;9.76;66.02;101154.84;4991701;27;45428;-80
2022/04/09 07:30:07;;;;;;;;;8.00;7.00;;;;;9.77;65.47;101149.47;4992783;28;46590;-81
2022/04/09 07:32:32;;;;;;;;;12.33;10.67;;;;;9.98;66.06;101178.97;4994918;27;45934;-80
2022/04/09 07:34:58;;;;;;;;;12.67;11.67;;;;;10.02;65.76;101184.13;4994216;28;46301;-81
2022/04/09 07:37:24;;;;;;;;;11.00;11.00;;;;;9.86;66.22;101148.31;4993466;27;45416;-80
2022/04/09 07:39:49;;;;;;;;;8.00;8.00;;;;;10.10;65.91;101190.06;4994955;28;45228;-80
2022/04/09 07:42:15;;;;;;;;;12.00;10.33;;;;;10.13;65.66;101189.06;4994023;28;45540;-80
2022/04/09 07:44:40;;;;;;;;;9.33;9.33;;;;;10.15;65.77;101197.88;4994722;28;46014;-80
2022/04/09 07:47:05;;;;;;;;;7.00;7.00;;;;;10.10;65.01;101178.53;4993605;27;45382;-80
2022/04/09 07:49:31;;;;;;;;;11.33;11.33;;;;;10.21;65.01;101191.47;4993249;28;45678;-80
2022/04/09 07:51:56;;;;;;;;;8.00;7.00;;;;;10.22;65.05;101193.22;4991996;28;45534;-80
2022/04/09 07:54:22;;;;;;;;;9.33;9.00;;;;;10.00;65.04;101153.16;4994024;28;45430;-80
2022/04/09 07:56:48;;;;;;;;;8.00;8.00;;;;;10.21;64.72;101197.69;4994051;27;45366;-81
2022/04/09 07:59:13;;;;;;;;;12.67;11.00;;;;;10.29;65.29;101203.63;4993547;28;45394;-81
2022/04/09 08:01:48;;;;;;;;;13.00;10.00;;;;;10.33;65.04;101207.94;4994612;28;45470;-82
2022/04/09 08:04:13;;;;;;;;;14.67;12.00;;;;;10.40;64.94;101203.25;4993688;27;45724;-82
2022/04/09 08:06:38;;;;;;;;;10.00;10.00;;;;;10.20;65.35;101166.63;4993804;27;56152;-87
2022/04/09 08:09:04;;;;;;;;;15.67;12.00;;;;;10.31;64.78;101183.13;4994317;27;45494;-82
2022/04/09 08:11:30;;;;;;;;;13.00;12.00;;;;;10.49;64.44;101207.41;4993535;28;45465;-81
2022/04/09 08:13:55;;;;;;;;;6.00;6.00;;;;;10.19;63.46;101162.22;4993641;28;45512;-80
2022/04/09 08:16:21;;;;;;;;;5.00;5.00;;;;;9.97;63.18;101132.81;4994549;28;45416;-82
2022/04/09 08:18:46;;;;;;;;;5.00;5.00;;;;;10.03;62.56;101132.59;4995610;28;45641;-83
2022/04/09 08:21:21;;;;;;;;;8.67;8.67;;;;;9.67;63.14;101047.78;4998148;28;45684;-84
2022/04/09 08:23:49;;;;;;;;;7.00;7.00;;;;;9.81;63.08;101070.38;4990234;27;47919;-83
2022/04/09 08:26:14;;;;;;;;;8.00;6.33;;;;;9.72;62.45;101063.59;4993475;27;45499;-83
2022/04/09 08:28:40;;;;;;;;;6.67;5.33;;;;;10.76;62.14;101237.50;4992961;27;46137;-81
2022/04/09 08:31:07;;;;;;;;;4.33;4.00;;;;;10.80;61.33;101240.94;4994577;28;45404;-82
2022/04/09 08:33:35;;;;;;;;;5.67;5.00;;;;;10.46;61.94;101175.50;4993536;28;46122;-82
2022/04/09 08:36:02;;;;;;;;;6.00;6.00;;;;;10.83;61.30;101241.69;4994377;27;45452;-82
2022/04/09 08:38:28;;;;;;;;;6.00;6.00;;;;;10.16;61.70;101130.38;4993453;27;45518;-81
2022/04/09 08:40:55;;;;;;;;;7.00;7.00;;;;;10.83;61.60;101260.34;4993922;28;45251;-81
2022/04/09 08:43:21;;;;;;;;;7.67;6.00;;;;;10.71;61.01;101251.00;5009450;27;45451;-81
2022/04/09 08:45:46;;;;;;;;;4.00;4.00;;;;;10.40;60.52;101195.28;5054512;27;45471;-84
2022/04/09 08:48:14;;;;;;;;;17.00;16.00;;;;;10.81;60.89;101275.53;4989743;28;45410;-83
2022/04/09 08:50:45;;;;;;;;;11.00;10.67;;;;;10.78;60.19;101276.50;5004668;27;45515;-83
2022/04/09 08:53:29;;;;;;;;;6.00;6.00;;;;;10.61;60.48;101262.94;5013675;27;46332;-84
2022/04/09 08:55:54;;;;;;;;;4.00;4.00;;;;;10.74;60.38;101290.88;4991549;27;45575;-83
2022/04/09 08:58:19;;;;;;;;;5.00;4.00;;;;;10.75;58.73;101291.75;4992749;28;45266;-83
2022/04/09 09:00:46;;;;;;;;;5.00;5.00;;;;;9.81;59.37;101136.91;4991584;28;49027;-83
2022/04/09 09:03:14;;;;;;;;;7.33;7.00;;;;;10.11;58.92;101177.59;5015169;28;47314;-83
2022/04/09 09:05:54;;;;;;;;;4.00;3.00;;;;;9.75;58.79;101106.06;5009776;28;45625;-83
2022/04/09 09:08:41;;;;;;;;;6.67;5.33;;;;;10.88;58.75;101287.72;4996066;28;46513;-83
2022/04/09 09:11:06;;;;;;;;;7.67;6.67;;;;;11.03;59.42;101288.97;4996191;28;45412;-81
2022/04/09 09:13:49;;;;;;;;;9.00;7.67;;;;;10.96;59.03;101263.44;5001358;28;46140;-83
2022/04/09 09:16:23;;;;;;;;;6.00;6.00;;;;;10.66;58.41;101206.78;4996679;27;45710;-83
2022/04/09 09:18:51;;;;;;;;;6.00;5.00;;;;;11.22;58.72;101282.94;4999332;27;45738;-81
2022/04/09 09:21:18;;;;;;;;;6.00;6.00;;;;;11.33;58.09;101286.94;5004157;27;45429;-83
2022/04/09 09:23:43;;;;;;;;;7.00;5.00;;;;;11.37;57.39;101291.22;4999638;27;46205;-83
2022/04/09 09:26:09;;;;;;;;;10.33;7.67;;;;;11.36;57.06;101296.63;4998110;28;47405;-84
2022/04/09 09:28:34;;;;;;;;;12.33;8.67;;;;;11.22;56.74;101280.28;5001056;28;45607;-84
2022/04/09 09:31:01;;;;;;;;;8.33;8.00;;;;;11.32;57.58;101303.88;4995247;28;45349;-85
2022/04/09 09:33:28;;;;;;;;;7.00;7.00;;;;;10.86;57.45;101230.03;4996477;28;46528;-84
2022/04/09 09:35:59;;;;;;;;;7.67;7.00;;;;;11.07;57.76;101266.56;5004556;28;45352;-84
2022/04/09 09:38:29;;;;;;;;;9.00;8.00;;;;;11.34;56.95;101319.84;4996038;28;45376;-84
2022/04/09 09:40:58;;;;;;;;;8.33;7.00;;;;;11.33;56.63;101315.41;4995050;27;45484;-83
2022/04/09 09:43:25;;;;;;;;;6.00;6.00;;;;;11.33;57.04;101321.66;5000790;27;45545;-81
2022/04/09 09:45:54;;;;;;;;;6.33;6.33;;;;;11.37;56.84;101320.56;4995577;28;45576;-82
2022/04/09 09:48:24;;;;;;;;;5.00;5.00;;;;;11.46;56.83;101332.72;5000220;27;45375;-82
2022/04/09 09:50:50;;;;;;;;;5.00;4.00;;;;;11.50;56.54;101339.69;4997015;27;45689;-82
2022/04/09 09:54:02;;;;;;;;;6.00;6.00;;;;;11.50;56.73;101342.34;5000485;27;46048;-86
2022/04/09 09:56:35;;;;;;;;;6.33;6.33;;;;;11.50;56.17;101349.50;4998695;28;45500;-82
2022/04/09 09:59:02;;;;;;;;;6.33;6.33;;;;;11.34;57.16;101330.53;4994796;28;45282;-82
2022/04/09 10:02:00;;;;;;;;;5.67;4.00;;;;;10.95;55.88;101277.69;4998069;28;45625;-82
2022/04/09 10:04:26;;;;;;;;;2.67;2.67;;;;;10.95;56.13;101291.91;4995087;27;46196;-82
2022/04/09 10:07:04;;;;;;;;;5.00;5.00;;;;;11.41;55.99;101369.41;5005335;27;46016;-81
2022/04/09 10:09:29;;;;;;;;;8.67;6.67;;;;;10.87;56.82;101277.13;5008932;27;45379;-81
2022/04/09 10:11:55;;;;;;;;;4.67;4.33;;;;;11.42;56.34;101376.47;5003298;27;45547;-82
2022/04/09 10:14:22;;;;;;;;;4.33;4.33;;;;;10.95;56.60;101299.91;5000184;27;45515;-80
2022/04/09 10:16:51;;;;;;;;;5.00;4.67;;;;;10.61;56.39;101246.06;4995026;27;45712;-84
2022/04/09 10:19:19;;;;;;;;;5.00;5.00;;;;;11.39;56.34;101379.25;4994083;27;45516;-82
2022/04/09 10:21:47;;;;;;;;;5.00;5.00;;;;;11.38;55.90;101383.72;4997171;27;45438;-81
2022/04/09 10:24:18;;;;;;;;;4.67;4.67;;;;;11.36;56.14;101396.25;4997849;27;46302;-80
2022/04/09 10:26:45;;;;;;;;;4.00;4.00;;;;;11.20;56.42;101365.72;4993784;27;45429;-81
2022/04/09 10:29:10;;;;;;;;;4.67;4.67;;;;;11.34;56.51;101405.25;5001076;27;45263;-82
2022/04/09 10:31:41;;;;;;;;;6.00;5.00;;;;;11.02;56.55;101340.56;4992376;28;45428;-81
2022/04/09 10:34:10;;;;;;;;;4.00;4.00;;;;;11.34;56.67;101398.09;4994866;27;47513;-82
2022/04/09 10:36:44;;;;;;;;;6.67;6.67;;;;;11.37;56.33;101408.66;4998708;27;45447;-81
2022/04/09 10:39:29;;;;;;;;;5.67;5.67;;;;;11.40;56.60;101407.66;4992544;28;45437;-83
2022/04/09 10:41:55;;;;;;;;;6.00;6.00;;;;;11.34;56.26;101397.22;4998061;27;45389;-82
2022/04/09 10:44:32;;;;;;;;;7.00;4.33;;;;;11.50;56.38;101406.41;4999746;28;45364;-82
2022/04/09 10:47:03;;;;;;;;;5.00;5.00;;;;;11.56;55.90;101411.50;4992779;27;45561;-82
2022/04/09 10:49:29;;;;;;;;;5.33;5.00;;;;;10.82;56.27;101279.94;4993093;27;45467;-81
2022/04/09 10:52:16;;;;;;;;;6.00;6.00;;;;;11.72;55.78;101416.28;4997792;28;45370;-81
2022/04/09 10:55:10;;;;;;;;;8.00;6.00;;;;;11.82;55.51;101412.34;4989005;28;46093;-81
2022/04/09 10:57:43;;;;;;;;;5.67;5.67;;;;;11.91;55.96;101416.50;5005229;28;44770;-84
2022/04/09 11:00:29;;;;;;;;;7.67;6.67;;;;;10.62;55.23;101203.34;5015289;28;45310;-81
2022/04/09 11:03:28;;;;;;;;;4.67;3.33;;;;;12.00;54.47;101425.03;4991767;28;45378;-80
2022/04/09 11:06:32;;;;;;;;;6.00;6.00;;;;;11.97;54.40;101411.78;4999874;28;46072;-82
2022/04/09 11:08:58;;;;;;;;;3.67;3.67;;;;;12.10;54.23;101419.31;5002073;27;45375;-82
2022/04/09 11:11:27;;;;;;;;;4.00;4.00;;;;;12.13;53.26;101421.91;5002249;27;46342;-83
2022/04/09 11:13:53;;;;;;;;;4.00;4.00;;;;;11.87;53.14;101373.03;5005702;28;45547;-81
2022/04/09 11:16:18;;;;;;;;;6.33;6.33;;;;;12.31;51.95;101422.94;5002835;27;46044;-83
2022/04/09 11:18:46;;;;;;;;;3.33;3.33;;;;;12.44;52.25;101418.84;5000952;28;45302;-84
2022/04/09 11:21:12;;;;;;;;;71.50;53.75;;;;;12.40;52.30;101393.16;4998647;27;45443;-86
2022/04/09 11:23:38;;;;;;;;;8.00;8.00;;;;;12.61;51.04;101413.66;4995829;28;45483;-86
2022/04/09 11:26:03;;;;;;;;;4.00;4.00;;;;;12.37;51.26;101319.31;4995350;28;46037;-87
2022/04/09 11:28:38;;;;;;;;;4.67;3.00;;;;;13.67;50.31;101422.50;4995400;27;45579;-89
2022/04/09 11:31:04;;;;;;;;;3.00;3.00;;;;;13.28;49.48;101326.97;4995744;28;45436;-88
2022/04/09 11:33:32;;;;;;;;;5.00;2.67;;;;;13.19;48.58;101303.25;4995630;28;45612;-86